Ana Sayfa
METAR-TAF:

METAR-TAF

Havaalanları :

Mitiga International Airport

Trablus, Libya

Enlem: 32-54N, Boylam: 13-17E, yükseklik: 11 m

METAR: eksik

Saat: 03:27 (01:27 UTC)

Tahmin

Rapor saat 17:00 UTC de 8 saat ve 27 dakika önce yapıldı.
Ayın 17'si saat 18 UTC'den ayın 18'si saat 18 UTC'ye kadar geçerli Tahmin
Rüzgar kuzeydoğudan 10 kt
Görüş mesafesi 10 km veya daha fazla
2500 ft yükseklikte az bulutlu
Dönüşüyor
ayın 17'si saat 20 UTC'den ayın 17'si saat 22 UTC'ye kadar
Rüzgar değişken yönden 2 kt
Dönüşüyor
ayın 18'si saat 09 UTC'den ayın 18'si saat 11 UTC'ye kadar
Rüzgar doğu/kuzeydoğudan 12 kt

TAF: HLLM 171700Z 1718/1818 05010KT 9999 FEW025 BECMG 1720/1722 VRB02KT BECMG 1809/1811 06012KT

4.000'den fazla havaalanı için hava durumu gözlemleri ve tahminleri (METAR ve TAF raporları).

Kullanılabilir istasyonlar harita üzerinde sarı ve kırmızı noktalarla gösterilir.

İstasyonun adını görmek için fareyi noktanın üzerinde gezdirin.

Sonrasında hava gözlem ve tahminlerini görmek için tıklayın.

Haritayı değiştirmek için: yaklaştırmak için siyah artı işaretli yeşil düğmeye ve uzaklaştırmak için de eksi işaretli düğmeye hızla tıklayın; bitişik haritalar için yeşil okları kullanın.


METAR-TAF: